ADDS METAR Data INFO
IDs: Format: Raw Decoded Include TAF

Data at: 0031 UTC 23 Oct 2017

METAR for:KOPF (Miami/Opa Locka Arpt, FL, US)
Text:KOPF 222353Z 11010KT 10SM FEW023 SCT033 28/24 A3007 RMK AO2 SLP184 T02780239 10306 20278 53005
Temperature: 27.8°C ( 82°F)
Dewpoint: 23.9°C ( 75°F) [RH = 79%]
Pressure (altimeter):30.07 inches Hg (1018.4 mb) [Sea level pressure: 1018.4 mb]
Winds:from the ESE (110 degrees) at 12 MPH (10 knots; 5.1 m/s)
Visibility:10 or more sm (16+ km)
Ceiling:at least 12,000 feet AGL
Clouds: few clouds at 2300 feet AGL, scattered clouds at 3300 feet AGL